Terminal Aerodrome Forecast
Issued by NWS

Home | Current Version | Previous Version | Text Only | Print | Product List | Glossary On
Versions: 1 2 3 4 5 6 7 8 9 10 11 12 13 14
000
FTUS45 KVEF 021100
TAFDAG
TAF
KDAG 021120Z 0212/0312 21003KT P6SM SCT040 BKN060
     FM021800 25019G27KT P6SM SCT060 BKN100
     FM030300 24012KT P6SM SCT080
     FM030800 27007KT P6SM SCT080=

USA.gov is the U.S. government's official web portal to all federal, state and local government web resources and services.